createdAt,value
2022-07-25T00:00:11.303Z,73.16
2022-07-25T00:01:13.293Z,74.10
2022-07-25T00:02:16.595Z,73.91
2022-07-25T00:03:18.733Z,74.51
2022-07-25T00:04:20.881Z,74.20
2022-07-25T00:05:24.423Z,73.42
2022-07-25T00:06:26.248Z,73.42
2022-07-25T00:07:28.233Z,74.13
2022-07-25T00:08:29.970Z,74.19
2022-07-25T00:09:31.936Z,74.01
2022-07-25T00:10:33.792Z,73.82
2022-07-25T00:11:35.658Z,73.76
2022-07-25T00:12:37.658Z,74.25
2022-07-25T00:13:39.693Z,74.79
2022-07-25T00:14:41.760Z,74.05
2022-07-25T00:15:43.565Z,73.79
2022-07-25T00:16:45.491Z,73.41
2022-07-25T00:17:47.312Z,73.55
2022-07-25T00:18:49.514Z,73.74
2022-07-25T00:19:51.319Z,73.39
2022-07-25T00:20:53.133Z,73.07
2022-07-25T00:21:55.102Z,72.85
2022-07-25T00:22:56.862Z,73.02
2022-07-25T00:23:58.714Z,73.09
2022-07-25T00:25:00.645Z,73.36
2022-07-25T00:26:02.517Z,73.01
2022-07-25T00:27:04.454Z,73.24
2022-07-25T00:28:06.244Z,73.21
2022-07-25T00:29:08.235Z,73.17
2022-07-25T00:30:10.300Z,72.76
2022-07-25T00:31:12.320Z,72.62
2022-07-25T00:32:14.191Z,72.86
2022-07-25T00:33:15.985Z,72.72
2022-07-25T00:34:17.834Z,72.56
2022-07-25T00:35:19.613Z,73.54
2022-07-25T00:36:21.539Z,72.98
2022-07-25T00:37:23.418Z,72.85
2022-07-25T00:38:25.287Z,72.91
2022-07-25T00:39:27.218Z,72.81
2022-07-25T00:40:29.039Z,72.68
2022-07-25T00:41:31.016Z,72.54
2022-07-25T00:42:32.932Z,72.59
2022-07-25T00:43:34.774Z,72.52
2022-07-25T00:44:36.567Z,73.05
2022-07-25T00:45:38.595Z,72.55
2022-07-25T00:46:40.453Z,72.47
2022-07-25T00:47:43.535Z,72.56
2022-07-25T00:48:45.326Z,73.71
2022-07-25T00:49:47.133Z,72.81
2022-07-25T00:50:48.977Z,72.58
2022-07-25T00:51:51.417Z,72.38
2022-07-25T00:52:53.265Z,72.48
2022-07-25T00:53:56.157Z,72.30
2022-07-25T00:54:57.955Z,72.55
2022-07-25T00:55:59.702Z,72.69
2022-07-25T00:57:02.318Z,72.56
2022-07-25T00:58:04.362Z,72.73
2022-07-25T00:59:06.273Z,72.76
2022-07-25T01:00:09.577Z,73.38
2022-07-25T01:01:11.388Z,72.67
2022-07-25T01:02:13.200Z,72.53
2022-07-25T01:03:15.742Z,72.45
2022-07-25T01:04:17.653Z,72.15
2022-07-25T01:05:19.419Z,72.26
2022-07-25T01:06:21.372Z,72.63
2022-07-25T01:07:26.845Z,72.49
2022-07-25T01:08:28.799Z,72.44
2022-07-25T01:09:31.090Z,73.00
2022-07-25T01:10:33.289Z,73.18
2022-07-25T01:11:35.113Z,72.89
2022-07-25T01:12:49.817Z,72.86
2022-07-25T01:13:51.769Z,73.11
2022-07-25T01:14:53.661Z,73.60
2022-07-25T01:15:55.576Z,73.32
2022-07-25T01:16:57.559Z,73.10
2022-07-25T01:17:59.771Z,73.19
2022-07-25T01:19:01.951Z,73.37
2022-07-25T01:20:03.924Z,73.60
2022-07-25T01:21:05.987Z,73.44
2022-07-25T01:22:07.797Z,73.50
2022-07-25T01:23:09.575Z,73.30
2022-07-25T01:24:12.308Z,73.40
2022-07-25T01:25:14.791Z,73.77
2022-07-25T01:26:16.553Z,73.88
2022-07-25T01:27:18.373Z,73.89
2022-07-25T01:28:20.129Z,73.79
2022-07-25T01:29:21.981Z,73.53
2022-07-25T01:30:24.832Z,73.68
2022-07-25T01:31:26.683Z,73.67
2022-07-25T01:32:28.493Z,73.52
2022-07-25T01:33:30.256Z,73.46
2022-07-25T01:34:32.171Z,73.29
2022-07-25T01:35:34.114Z,73.41
2022-07-25T01:36:35.937Z,73.39
2022-07-25T01:37:37.872Z,73.36
2022-07-25T01:38:40.104Z,73.53
2022-07-25T01:39:41.994Z,73.28
2022-07-25T01:40:44.501Z,73.62
2022-07-25T01:41:46.240Z,73.58
2022-07-25T01:42:48.057Z,73.48
2022-07-25T01:43:49.979Z,73.43
2022-07-25T01:44:52.192Z,73.59
2022-07-25T01:45:54.038Z,73.46
2022-07-25T01:46:55.813Z,73.56
2022-07-25T01:47:57.596Z,73.86
2022-07-25T01:48:59.713Z,73.80
2022-07-25T01:50:01.549Z,73.49
2022-07-25T01:51:03.407Z,73.58
2022-07-25T01:52:05.995Z,73.59
2022-07-25T01:53:07.788Z,73.23
2022-07-25T01:54:10.488Z,73.43
2022-07-25T01:55:12.958Z,74.20
2022-07-25T01:56:14.759Z,73.86
2022-07-25T01:57:16.663Z,73.89
2022-07-25T01:58:18.604Z,73.94
2022-07-25T01:59:21.321Z,73.71
2022-07-25T02:00:23.440Z,73.54
2022-07-25T02:01:25.250Z,73.55
2022-07-25T02:02:27.061Z,73.45
2022-07-25T02:03:31.611Z,73.40
2022-07-25T02:04:33.689Z,73.87
2022-07-25T02:05:35.539Z,74.00
2022-07-25T02:06:37.370Z,73.81
2022-07-25T02:07:39.127Z,73.76
2022-07-25T02:08:40.851Z,73.99
2022-07-25T02:09:43.229Z,73.83
2022-07-25T02:10:45.207Z,73.92
2022-07-25T02:11:47.058Z,73.71
2022-07-25T02:12:48.813Z,73.75
2022-07-25T02:13:50.578Z,73.46
2022-07-25T02:14:52.306Z,73.43
2022-07-25T02:15:54.218Z,73.41
2022-07-25T02:16:56.051Z,73.31
2022-07-25T02:17:57.859Z,73.23
2022-07-25T02:18:59.719Z,73.26
2022-07-25T02:20:01.468Z,73.32
2022-07-25T02:21:03.369Z,74.17
2022-07-25T02:22:05.141Z,75.08
2022-07-25T02:23:06.910Z,74.18
2022-07-25T02:24:09.254Z,73.84
2022-07-25T02:25:11.322Z,73.63
2022-07-25T02:26:13.479Z,73.60
2022-07-25T02:27:15.256Z,73.80
2022-07-25T02:28:17.103Z,73.65
2022-07-25T02:29:18.877Z,73.79
2022-07-25T02:30:24.303Z,73.69
2022-07-25T02:31:26.285Z,73.73
2022-07-25T02:32:28.123Z,73.75
2022-07-25T02:33:30.164Z,73.56
2022-07-25T02:34:31.912Z,73.44
2022-07-25T02:35:33.956Z,73.38
2022-07-25T02:36:35.831Z,73.52
2022-07-25T02:37:37.616Z,73.62
2022-07-25T02:38:39.655Z,73.71
2022-07-25T02:39:41.426Z,73.62
2022-07-25T02:40:43.173Z,73.51
2022-07-25T02:41:44.996Z,74.33
2022-07-25T02:42:46.781Z,75.08
2022-07-25T02:43:48.603Z,74.91
2022-07-25T02:44:50.462Z,74.51
2022-07-25T02:45:52.330Z,74.45
2022-07-25T02:46:54.168Z,74.55
2022-07-25T02:47:55.939Z,74.66
2022-07-25T02:48:59.230Z,74.65
2022-07-25T02:50:01.146Z,74.76
2022-07-25T02:51:03.006Z,74.55
2022-07-25T02:52:05.042Z,74.45
2022-07-25T02:53:06.772Z,74.48
2022-07-25T02:54:08.532Z,74.40
2022-07-25T02:55:10.709Z,74.26
2022-07-25T02:56:12.537Z,74.25
2022-07-25T02:57:16.291Z,74.09
2022-07-25T02:58:18.013Z,73.99
2022-07-25T02:59:19.945Z,74.05
2022-07-25T03:00:21.831Z,73.89
2022-07-25T03:01:23.662Z,74.69
2022-07-25T03:02:25.577Z,74.88
2022-07-25T03:03:27.424Z,74.75
2022-07-25T03:04:31.298Z,74.54
2022-07-25T03:05:33.121Z,74.39
2022-07-25T03:06:34.882Z,74.32
2022-07-25T03:07:37.807Z,74.40
2022-07-25T03:08:39.595Z,74.29
2022-07-25T03:09:41.499Z,74.74
2022-07-25T03:10:43.272Z,74.72
2022-07-25T03:11:45.529Z,74.20
2022-07-25T03:12:47.353Z,74.36
2022-07-25T03:13:49.121Z,74.37
2022-07-25T03:14:50.972Z,74.37
2022-07-25T03:15:52.736Z,74.20
2022-07-25T03:16:54.651Z,73.96
2022-07-25T03:17:56.675Z,74.48
2022-07-25T03:18:58.671Z,74.28
2022-07-25T03:20:00.442Z,74.19
2022-07-25T03:21:02.173Z,74.16
2022-07-25T03:22:03.994Z,74.92
2022-07-25T03:23:05.915Z,75.45
2022-07-25T03:24:08.172Z,75.30
2022-07-25T03:25:15.567Z,75.12
2022-07-25T03:26:23.092Z,74.91
2022-07-25T03:27:26.938Z,74.74
2022-07-25T03:28:28.771Z,74.95
2022-07-25T03:29:30.593Z,74.85
2022-07-25T03:30:32.458Z,74.97
2022-07-25T03:31:34.745Z,74.69
2022-07-25T03:32:36.567Z,74.73
2022-07-25T03:33:38.430Z,75.38
2022-07-25T03:34:40.236Z,75.08
2022-07-25T03:35:42.203Z,75.08
2022-07-25T03:36:43.975Z,74.84
2022-07-25T03:37:46.042Z,74.92
2022-07-25T03:38:47.903Z,74.94
2022-07-25T03:39:49.770Z,74.88
2022-07-25T03:40:51.581Z,75.06
2022-07-25T03:41:53.432Z,75.09
2022-07-25T03:42:55.358Z,74.75
2022-07-25T03:43:57.172Z,74.89
2022-07-25T03:44:58.976Z,75.35
2022-07-25T03:46:00.863Z,75.52
2022-07-25T03:47:02.655Z,75.42
2022-07-25T03:48:04.475Z,75.33
2022-07-25T03:49:06.363Z,75.28
2022-07-25T03:50:08.285Z,74.93
2022-07-25T03:51:10.052Z,75.26
2022-07-25T03:52:11.819Z,75.76
2022-07-25T03:53:13.803Z,75.84
2022-07-25T03:54:15.668Z,75.49
2022-07-25T03:55:17.441Z,75.26
2022-07-25T03:56:19.232Z,75.98
2022-07-25T03:57:21.030Z,75.71
2022-07-25T03:58:22.801Z,75.54
2022-07-25T03:59:24.664Z,75.54
2022-07-25T04:00:26.556Z,75.36
2022-07-25T04:01:29.021Z,75.36
2022-07-25T04:02:30.909Z,75.46
2022-07-25T04:03:33.373Z,76.37
2022-07-25T04:04:35.224Z,76.36
2022-07-25T04:05:36.998Z,76.01
2022-07-25T04:06:39.357Z,75.68
2022-07-25T04:07:41.173Z,75.82
2022-07-25T04:08:42.961Z,75.59
2022-07-25T04:09:45.136Z,75.56
2022-07-25T04:10:46.912Z,75.65
2022-07-25T04:11:48.748Z,75.56
2022-07-25T04:12:50.558Z,75.66
2022-07-25T04:13:52.315Z,75.72
2022-07-25T04:14:54.208Z,75.52
2022-07-25T04:15:56.376Z,75.59
2022-07-25T04:17:00.310Z,75.51
2022-07-25T04:18:02.094Z,75.92
2022-07-25T04:19:05.392Z,76.69
2022-07-25T04:20:08.682Z,76.36
2022-07-25T04:21:10.912Z,76.49
2022-07-25T04:22:12.689Z,76.27
2022-07-25T04:23:14.545Z,76.30
2022-07-25T04:24:16.290Z,76.16
2022-07-25T04:25:18.342Z,76.71
2022-07-25T04:26:20.206Z,76.36
2022-07-25T04:27:22.431Z,76.15
2022-07-25T04:28:27.265Z,76.34
2022-07-25T04:29:29.514Z,76.38
2022-07-25T04:30:31.345Z,76.27
2022-07-25T04:31:33.234Z,76.35
2022-07-25T04:32:34.982Z,76.00
2022-07-25T04:33:37.706Z,76.36
2022-07-25T04:34:39.429Z,76.08
2022-07-25T04:35:41.333Z,76.03
2022-07-25T04:36:43.177Z,76.06
2022-07-25T04:37:44.954Z,76.23
2022-07-25T04:38:46.802Z,76.22
2022-07-25T04:39:48.617Z,76.24
2022-07-25T04:40:50.562Z,76.07
2022-07-25T04:41:52.354Z,75.89
2022-07-25T04:42:54.482Z,75.68
2022-07-25T04:43:56.246Z,75.97
2022-07-25T04:44:58.137Z,76.44
2022-07-25T04:46:00.179Z,76.79
2022-07-25T04:47:02.043Z,76.58
2022-07-25T04:48:04.463Z,76.39
2022-07-25T04:49:06.286Z,76.19
2022-07-25T04:50:08.398Z,76.20
2022-07-25T04:51:10.953Z,75.93
2022-07-25T04:52:12.727Z,76.11
2022-07-25T04:53:14.473Z,76.07
2022-07-25T04:54:16.235Z,76.01
2022-07-25T04:55:18.173Z,76.22
2022-07-25T04:56:20.072Z,76.20
2022-07-25T04:57:21.905Z,76.59
2022-07-25T04:58:23.698Z,76.65
2022-07-25T04:59:25.456Z,76.76
2022-07-25T05:00:27.274Z,76.49
2022-07-25T05:01:29.272Z,76.90
2022-07-25T05:02:31.128Z,76.37
2022-07-25T05:03:33.087Z,76.21
2022-07-25T05:04:35.046Z,76.23
2022-07-25T05:05:45.176Z,76.27
2022-07-25T05:06:47.076Z,76.19
2022-07-25T05:07:49.220Z,76.31
2022-07-25T05:08:51.125Z,76.08
2022-07-25T05:09:53.080Z,76.03
2022-07-25T05:10:55.002Z,76.06
2022-07-25T05:11:56.875Z,76.87
2022-07-25T05:12:58.777Z,76.68
2022-07-25T05:14:00.776Z,76.55
2022-07-25T05:15:03.283Z,76.67
2022-07-25T05:16:05.542Z,77.03
2022-07-25T05:17:07.547Z,76.72
2022-07-25T05:18:09.430Z,76.85
2022-07-25T05:19:11.633Z,76.91
2022-07-25T05:20:14.047Z,76.94
2022-07-25T05:21:15.900Z,76.77
2022-07-25T05:22:17.883Z,76.56
2022-07-25T05:23:19.687Z,76.44
2022-07-25T05:24:23.205Z,76.70
2022-07-25T05:25:25.681Z,77.07
2022-07-25T05:26:27.505Z,77.60
2022-07-25T05:27:29.430Z,77.23
2022-07-25T05:28:31.363Z,77.38
2022-07-25T05:29:33.149Z,77.26
2022-07-25T05:30:39.582Z,77.67
2022-07-25T05:31:42.041Z,77.68
2022-07-25T05:32:44.066Z,78.30
2022-07-25T05:33:45.905Z,78.18
2022-07-25T05:34:47.688Z,77.90
2022-07-25T05:35:49.496Z,77.87
2022-07-25T05:36:51.286Z,77.62
2022-07-25T05:37:53.270Z,77.55
2022-07-25T05:38:55.131Z,77.90
2022-07-25T05:39:56.901Z,77.72
2022-07-25T05:40:58.758Z,77.40
2022-07-25T05:42:00.577Z,77.80
2022-07-25T05:43:04.895Z,77.96
2022-07-25T05:44:07.003Z,77.63
2022-07-25T05:45:09.232Z,77.77
2022-07-25T05:46:11.212Z,78.42
2022-07-25T05:47:13.532Z,78.06
2022-07-25T05:48:16.057Z,77.91
2022-07-25T05:49:17.943Z,78.11
2022-07-25T05:50:19.749Z,78.27
2022-07-25T05:51:21.560Z,78.01
2022-07-25T05:52:23.385Z,77.84
2022-07-25T05:53:25.492Z,78.68
2022-07-25T05:54:27.596Z,78.50
2022-07-25T05:55:29.518Z,78.28
2022-07-25T05:56:31.300Z,78.31
2022-07-25T05:57:33.143Z,77.91
2022-07-25T05:58:37.131Z,78.02
2022-07-25T05:59:38.900Z,77.96
2022-07-25T06:00:40.865Z,78.49
2022-07-25T06:01:42.741Z,78.19
2022-07-25T06:02:44.665Z,78.00
2022-07-25T06:03:46.728Z,77.73
2022-07-25T06:04:48.681Z,78.11
2022-07-25T06:05:50.523Z,78.08
2022-07-25T06:06:52.650Z,77.71
2022-07-25T06:07:54.620Z,77.73
2022-07-25T06:08:56.568Z,77.84
2022-07-25T06:09:58.947Z,77.79
2022-07-25T06:11:01.067Z,77.59
2022-07-25T06:12:03.922Z,77.18
2022-07-25T06:13:06.153Z,77.03
2022-07-25T06:14:09.823Z,77.06
2022-07-25T06:15:12.633Z,77.09
2022-07-25T06:16:24.717Z,76.91
2022-07-25T06:17:32.007Z,76.65
2022-07-25T06:18:34.453Z,77.06
2022-07-25T06:19:36.371Z,76.99
2022-07-25T06:20:38.144Z,77.19
2022-07-25T06:21:39.938Z,76.59
2022-07-25T06:22:41.721Z,76.86
2022-07-25T06:23:43.613Z,76.53
2022-07-25T06:24:45.815Z,76.41
2022-07-25T06:25:50.369Z,76.83
2022-07-25T06:26:52.469Z,76.68
2022-07-25T06:27:54.302Z,76.46
2022-07-25T06:28:56.224Z,76.62
2022-07-25T06:29:58.175Z,76.52
2022-07-25T06:31:00.047Z,76.74
2022-07-25T06:32:02.022Z,76.86
2022-07-25T06:33:03.912Z,76.68
2022-07-25T06:34:06.035Z,76.81
2022-07-25T06:35:08.323Z,76.43
2022-07-25T06:36:10.776Z,76.45
2022-07-25T06:37:12.717Z,76.34
2022-07-25T06:38:14.598Z,76.16
2022-07-25T06:39:16.385Z,76.45
2022-07-25T06:40:18.296Z,76.14
2022-07-25T06:41:20.327Z,76.04
2022-07-25T06:42:22.140Z,75.86
2022-07-25T06:43:24.030Z,75.68
2022-07-25T06:44:26.101Z,75.84
2022-07-25T06:45:28.063Z,75.76
2022-07-25T06:46:31.805Z,75.46
2022-07-25T06:47:35.990Z,75.30
2022-07-25T06:48:38.107Z,75.29
2022-07-25T06:49:40.498Z,75.34
2022-07-25T06:50:42.645Z,75.34
2022-07-25T06:51:44.491Z,75.38
2022-07-25T06:52:46.600Z,75.38
2022-07-25T06:53:48.691Z,75.07
2022-07-25T06:54:50.492Z,75.17
2022-07-25T06:55:52.296Z,75.15
2022-07-25T06:56:54.349Z,75.22
2022-07-25T06:57:56.282Z,75.86
2022-07-25T06:58:58.694Z,75.77
2022-07-25T07:00:00.517Z,75.46
2022-07-25T07:01:02.544Z,75.13
2022-07-25T07:02:04.397Z,75.04
2022-07-25T07:03:06.187Z,74.48
2022-07-25T07:04:08.328Z,74.60
2022-07-25T07:05:10.544Z,74.85
2022-07-25T07:06:12.511Z,74.41
2022-07-25T07:07:14.439Z,74.32
2022-07-25T07:08:16.250Z,74.73
2022-07-25T07:09:18.053Z,74.47
2022-07-25T07:10:20.820Z,74.40
2022-07-25T07:11:22.934Z,74.17
2022-07-25T07:12:25.171Z,74.55
2022-07-25T07:13:27.371Z,73.87
2022-07-25T07:14:29.129Z,74.30
2022-07-25T07:15:30.926Z,73.61
2022-07-25T07:16:32.966Z,73.30
2022-07-25T07:17:34.743Z,73.35
2022-07-25T07:18:37.106Z,73.29
2022-07-25T07:19:44.680Z,73.24
2022-07-25T07:20:47.419Z,73.49
2022-07-25T07:21:51.663Z,72.80
2022-07-25T07:22:53.812Z,72.14
2022-07-25T07:23:55.653Z,72.70
2022-07-25T07:24:58.957Z,73.08
2022-07-25T07:26:00.792Z,72.83
2022-07-25T07:27:02.801Z,72.51
2022-07-25T07:28:04.770Z,73.19
2022-07-25T07:29:06.922Z,72.74
2022-07-25T07:30:09.784Z,72.13
2022-07-25T07:31:16.707Z,72.46
2022-07-25T07:32:19.308Z,72.39
2022-07-25T07:33:21.228Z,72.14
2022-07-25T07:34:23.062Z,72.14
2022-07-25T07:35:25.664Z,71.80
2022-07-25T07:36:29.511Z,71.81
2022-07-25T07:37:36.585Z,71.70
2022-07-25T07:38:40.630Z,71.75
2022-07-25T07:39:42.500Z,71.99
2022-07-25T07:40:44.415Z,71.36
2022-07-25T07:41:46.223Z,70.94
2022-07-25T07:42:49.603Z,70.97
2022-07-25T07:43:51.439Z,70.88
2022-07-25T07:44:53.456Z,70.94
2022-07-25T07:45:56.355Z,70.53
2022-07-25T07:47:01.894Z,70.68
2022-07-25T07:48:03.882Z,71.04
2022-07-25T07:49:06.061Z,70.27
2022-07-25T07:50:08.596Z,70.19
2022-07-25T07:51:10.595Z,69.97
2022-07-25T07:52:12.388Z,70.40
2022-07-25T07:53:14.345Z,70.71
2022-07-25T07:54:34.551Z,70.57
2022-07-25T07:56:05.299Z,69.97
2022-07-25T07:57:07.126Z,70.20
2022-07-25T07:58:09.057Z,70.07
2022-07-25T07:59:11.029Z,70.73
2022-07-25T08:00:16.549Z,69.80
2022-07-25T08:01:18.611Z,70.26
2022-07-25T08:02:20.601Z,70.23
2022-07-25T08:03:22.739Z,70.11
2022-07-25T08:04:24.601Z,70.01
2022-07-25T08:05:31.058Z,70.71
2022-07-25T08:06:32.870Z,70.09
2022-07-25T08:07:34.658Z,70.53
2022-07-25T08:08:36.522Z,70.14
2022-07-25T08:09:38.621Z,70.13
2022-07-25T08:10:42.144Z,69.37
2022-07-25T08:11:43.986Z,70.16
2022-07-25T08:12:45.786Z,70.06
2022-07-25T08:13:47.724Z,69.63
2022-07-25T08:14:49.623Z,68.88
2022-07-25T08:15:52.824Z,69.66
2022-07-25T08:16:57.254Z,68.72
2022-07-25T08:18:00.584Z,67.99
2022-07-25T08:19:02.510Z,68.51
2022-07-25T08:20:27.996Z,68.40
2022-07-25T08:21:30.706Z,70.17
2022-07-25T08:22:36.560Z,70.97
2022-07-25T08:23:39.324Z,69.46
2022-07-25T08:24:41.415Z,67.88
2022-07-25T08:25:43.879Z,66.18
2022-07-25T08:26:45.789Z,67.33
2022-07-25T08:27:47.685Z,66.19
2022-07-25T08:28:59.925Z,66.71
2022-07-25T08:30:12.613Z,66.44
2022-07-25T08:31:14.534Z,66.18
2022-07-25T08:32:16.331Z,66.29
2022-07-25T08:33:18.503Z,66.32
2022-07-25T08:34:22.714Z,66.47
2022-07-25T08:35:25.103Z,68.06
2022-07-25T08:36:27.037Z,68.36
2022-07-25T08:37:29.058Z,66.38
2022-07-25T08:38:30.890Z,66.39
2022-07-25T08:39:32.717Z,66.40
2022-07-25T08:40:34.691Z,65.52
2022-07-25T08:41:39.958Z,65.95
2022-07-25T08:42:41.938Z,65.77
2022-07-25T08:43:45.076Z,64.64
2022-07-25T08:44:57.207Z,64.53
2022-07-25T08:46:00.402Z,65.64
2022-07-25T08:47:02.442Z,66.27
2022-07-25T08:48:04.473Z,67.31
2022-07-25T08:49:06.358Z,66.95
2022-07-25T08:50:09.721Z,66.35
2022-07-25T08:51:11.694Z,64.46
2022-07-25T08:52:13.833Z,64.17
2022-07-25T08:53:32.568Z,63.73
2022-07-25T08:54:35.582Z,63.31
2022-07-25T08:55:37.570Z,64.44
2022-07-25T08:56:39.455Z,65.20
2022-07-25T08:57:44.115Z,62.85
2022-07-25T08:58:46.016Z,62.65
2022-07-25T08:59:47.783Z,64.56
2022-07-25T09:00:49.620Z,64.53
2022-07-25T09:01:51.518Z,65.13
2022-07-25T09:02:58.404Z,62.27
2022-07-25T09:04:01.230Z,63.43
2022-07-25T09:05:03.062Z,62.28
2022-07-25T09:06:15.352Z,62.77
2022-07-25T09:07:17.095Z,62.77
2022-07-25T09:08:19.449Z,63.50
2022-07-25T09:09:30.173Z,62.20
2022-07-25T09:10:32.176Z,60.53
2022-07-25T09:11:35.841Z,60.44
2022-07-25T09:12:37.629Z,59.33
2022-07-25T09:13:41.930Z,60.18
2022-07-25T09:14:44.311Z,61.96
2022-07-25T09:15:50.475Z,59.64
2022-07-25T09:16:52.392Z,60.22
2022-07-25T09:17:54.729Z,59.48
2022-07-25T09:19:06.358Z,59.25
2022-07-25T09:20:09.463Z,57.53
2022-07-25T09:21:13.610Z,58.67
2022-07-25T09:22:15.398Z,58.43
2022-07-25T09:23:35.718Z,59.59
2022-07-25T09:24:37.795Z,57.62
2022-07-25T09:25:39.559Z,60.07
2022-07-25T09:26:45.601Z,57.90
2022-07-25T09:27:47.552Z,57.09
2022-07-25T09:28:51.517Z,56.60
2022-07-25T09:29:53.417Z,57.08
2022-07-25T09:30:56.185Z,58.26
2022-07-25T09:31:58.867Z,56.99
2022-07-25T09:33:01.912Z,58.65
2022-07-25T09:34:08.798Z,59.57
2022-07-25T09:35:11.180Z,57.96
2022-07-25T09:36:13.638Z,55.89
2022-07-25T09:37:16.900Z,57.63
2022-07-25T09:38:19.358Z,57.13
2022-07-25T09:39:21.153Z,57.11
2022-07-25T09:40:23.082Z,56.65
2022-07-25T09:41:38.504Z,56.14
2022-07-25T09:42:40.309Z,56.12
2022-07-25T09:43:43.005Z,57.93
2022-07-25T09:44:45.394Z,57.95
2022-07-25T09:45:51.340Z,57.54
2022-07-25T09:46:53.207Z,57.10
2022-07-25T09:48:02.641Z,56.13
2022-07-25T09:49:04.707Z,56.09
2022-07-25T09:50:08.041Z,56.43
2022-07-25T09:51:10.032Z,56.56
2022-07-25T09:52:12.579Z,57.19
2022-07-25T09:53:14.373Z,57.47
2022-07-25T09:54:16.205Z,56.26
2022-07-25T09:55:18.185Z,56.19
2022-07-25T09:56:20.046Z,55.34
2022-07-25T09:57:26.059Z,54.94
2022-07-25T09:58:28.558Z,56.72
2022-07-25T09:59:30.433Z,55.05
2022-07-25T10:00:32.907Z,55.99
2022-07-25T10:01:35.962Z,57.43
2022-07-25T10:02:45.831Z,58.67
2022-07-25T10:03:53.621Z,55.64
2022-07-25T10:05:14.573Z,56.18
2022-07-25T10:06:28.330Z,56.41
2022-07-25T10:07:31.654Z,55.27
2022-07-25T10:08:40.934Z,55.00
2022-07-25T10:09:46.940Z,55.02
2022-07-25T10:10:48.995Z,54.58
2022-07-25T10:12:06.193Z,53.04
2022-07-25T10:13:12.314Z,53.88
2022-07-25T10:14:14.202Z,55.20
2022-07-25T10:15:16.169Z,54.66
2022-07-25T10:16:19.956Z,54.64
2022-07-25T10:17:22.127Z,55.93
2022-07-25T10:18:26.464Z,57.17
2022-07-25T10:19:42.908Z,55.89
2022-07-25T10:20:48.618Z,54.95
2022-07-25T10:21:55.722Z,55.99
2022-07-25T10:22:58.275Z,55.06
2022-07-25T10:24:05.345Z,55.81
2022-07-25T10:25:11.986Z,55.32
2022-07-25T10:26:16.513Z,53.77
2022-07-25T10:27:22.584Z,53.97
2022-07-25T10:28:34.717Z,53.19
2022-07-25T10:29:37.871Z,55.92
2022-07-25T10:30:40.690Z,54.95
2022-07-25T10:31:49.938Z,53.63
2022-07-25T10:32:59.851Z,52.89
2022-07-25T10:34:06.548Z,54.38
2022-07-25T10:35:17.010Z,52.36
2022-07-25T10:36:19.793Z,53.59
2022-07-25T10:37:27.555Z,53.54
2022-07-25T10:38:29.629Z,51.42
2022-07-25T10:39:37.637Z,48.43
2022-07-25T10:40:40.943Z,49.22
2022-07-25T10:41:49.820Z,49.10
2022-07-25T10:42:56.366Z,48.83
2022-07-25T10:44:01.697Z,48.44
2022-07-25T10:45:06.223Z,47.49
2022-07-25T10:46:15.455Z,50.08
2022-07-25T10:47:17.864Z,50.95
2022-07-25T10:48:25.616Z,49.53
2022-07-25T10:49:32.176Z,48.54
2022-07-25T10:50:54.532Z,48.75
2022-07-25T10:52:00.698Z,47.87
2022-07-25T10:53:08.001Z,47.59
2022-07-25T10:54:16.643Z,49.37
2022-07-25T10:55:24.578Z,46.07
2022-07-25T10:56:27.875Z,47.74
2022-07-25T10:57:31.996Z,48.95
2022-07-25T10:59:00.471Z,48.77
2022-07-25T11:00:08.807Z,48.11
2022-07-25T11:01:10.833Z,48.38
2022-07-25T11:02:21.837Z,47.00
2022-07-25T11:03:24.893Z,48.17
2022-07-25T11:04:26.762Z,47.65
2022-07-25T11:05:30.523Z,48.02
2022-07-25T11:06:36.691Z,46.59
2022-07-25T11:08:19.121Z,44.89
2022-07-25T11:09:26.943Z,45.94
2022-07-25T11:10:29.860Z,46.12
2022-07-25T11:11:38.686Z,46.56
2022-07-25T11:12:40.468Z,44.72
2022-07-25T11:13:42.702Z,45.02
2022-07-25T11:14:44.583Z,44.39
2022-07-25T11:15:47.003Z,45.12
2022-07-25T11:16:50.820Z,43.34
2022-07-25T11:17:53.406Z,45.07
2022-07-25T11:18:55.368Z,43.99
2022-07-25T11:20:05.459Z,45.30
2022-07-25T11:21:08.368Z,45.42
2022-07-25T11:22:10.518Z,44.80
2022-07-25T11:23:12.434Z,44.59
2022-07-25T11:24:14.359Z,43.01
2022-07-25T11:25:16.324Z,43.88
2022-07-25T11:26:18.520Z,44.76
2022-07-25T11:27:24.880Z,43.54
2022-07-25T11:28:36.869Z,43.35
2022-07-25T11:29:39.120Z,44.29
2022-07-25T11:30:40.871Z,44.19
2022-07-25T11:31:43.455Z,43.78
2022-07-25T11:32:47.340Z,41.29
2022-07-25T11:33:50.275Z,43.93
2022-07-25T11:34:53.799Z,43.74
2022-07-25T11:35:56.762Z,43.93
2022-07-25T11:36:59.581Z,43.05
2022-07-25T11:38:02.712Z,42.65
2022-07-25T11:39:05.478Z,41.31
2022-07-25T11:40:08.542Z,42.43
2022-07-25T11:41:10.521Z,40.55
2022-07-25T11:42:12.275Z,42.32
2022-07-25T11:43:23.766Z,41.61
2022-07-25T11:44:36.104Z,42.54
2022-07-25T11:45:40.160Z,40.31
2022-07-25T11:46:43.372Z,38.75
2022-07-25T11:47:45.577Z,39.69
2022-07-25T11:48:48.161Z,42.18
2022-07-25T11:49:51.588Z,39.31
2022-07-25T11:50:53.390Z,39.02
2022-07-25T11:51:55.261Z,41.83
2022-07-25T11:53:04.853Z,42.15
2022-07-25T11:54:10.944Z,42.72
2022-07-25T11:55:14.911Z,41.95
2022-07-25T11:56:41.241Z,41.04
2022-07-25T11:57:46.669Z,38.78
2022-07-25T11:58:59.210Z,39.95
2022-07-25T12:00:02.826Z,40.71
2022-07-25T12:01:11.292Z,41.39
2022-07-25T12:02:21.307Z,41.86
2022-07-25T12:03:24.405Z,39.98
2022-07-25T12:04:26.408Z,39.13
2022-07-25T12:05:32.395Z,38.86
2022-07-25T12:06:34.154Z,39.59
2022-07-25T12:07:40.719Z,40.23
2022-07-25T12:08:42.843Z,39.75
2022-07-25T12:09:55.331Z,37.87
2022-07-25T12:10:57.214Z,40.30
2022-07-25T12:12:03.685Z,39.70
2022-07-25T12:13:06.545Z,38.87
2022-07-25T12:14:08.958Z,39.31
2022-07-25T12:15:12.092Z,40.61
2022-07-25T12:16:14.144Z,41.13
2022-07-25T12:17:16.043Z,39.57
2022-07-25T12:18:18.786Z,40.18
2022-07-25T12:19:21.231Z,37.79
2022-07-25T12:20:24.697Z,37.73
2022-07-25T12:21:26.833Z,37.88
2022-07-25T12:22:28.626Z,38.60
2022-07-25T12:23:30.513Z,39.05
2022-07-25T12:24:32.490Z,37.70
2022-07-25T12:25:36.050Z,37.52
2022-07-25T12:26:38.114Z,36.43
2022-07-25T12:27:40.238Z,37.13
2022-07-25T12:28:42.019Z,37.50
2022-07-25T12:29:43.901Z,37.23
2022-07-25T12:30:46.408Z,38.70
2022-07-25T12:31:48.264Z,38.37
2022-07-25T12:32:50.207Z,37.60
2022-07-25T12:33:52.847Z,36.42
2022-07-25T12:34:54.682Z,38.09
2022-07-25T12:35:56.606Z,37.22
2022-07-25T12:36:58.485Z,38.70
2022-07-25T12:38:00.368Z,38.00
2022-07-25T12:39:02.193Z,36.86
2022-07-25T12:40:04.747Z,34.23
2022-07-25T12:41:06.661Z,37.77
2022-07-25T12:42:08.483Z,35.87
2022-07-25T12:43:10.344Z,35.27
2022-07-25T12:44:12.298Z,35.07
2022-07-25T12:45:15.769Z,34.15
2022-07-25T12:46:17.753Z,34.94
2022-07-25T12:47:19.750Z,35.07
2022-07-25T12:48:22.651Z,32.97
2022-07-25T12:49:24.503Z,33.75
2022-07-25T12:50:26.451Z,35.96
2022-07-25T12:51:28.331Z,35.84
2022-07-25T12:52:30.204Z,35.38
2022-07-25T12:53:32.093Z,34.48
2022-07-25T12:54:34.402Z,35.50
2022-07-25T12:55:36.638Z,35.09
2022-07-25T12:56:38.576Z,34.40
2022-07-25T12:57:40.546Z,34.40
2022-07-25T12:58:42.494Z,34.27
2022-07-25T12:59:45.058Z,35.53
2022-07-25T13:00:47.069Z,34.99
2022-07-25T13:01:49.030Z,34.07
2022-07-25T13:02:52.209Z,35.36
2022-07-25T13:03:54.187Z,35.50
2022-07-25T13:04:58.728Z,33.88
2022-07-25T13:06:00.667Z,33.33
2022-07-25T13:07:02.694Z,32.47
2022-07-25T13:08:05.557Z,32.06
2022-07-25T13:09:07.997Z,33.72
2022-07-25T13:10:10.735Z,33.22
2022-07-25T13:11:13.360Z,33.06
2022-07-25T13:12:16.693Z,33.23
2022-07-25T13:13:18.643Z,34.50
2022-07-25T13:14:20.470Z,33.13
2022-07-25T13:15:23.814Z,32.22
2022-07-25T13:16:25.858Z,32.47
2022-07-25T13:17:28.074Z,34.28
2022-07-25T13:18:30.788Z,32.29
2022-07-25T13:19:32.532Z,33.96
2022-07-25T13:20:36.339Z,33.41
2022-07-25T13:21:38.337Z,31.85
2022-07-25T13:22:40.334Z,31.86
2022-07-25T13:23:42.175Z,32.75
2022-07-25T13:24:44.218Z,33.07
2022-07-25T13:25:46.035Z,33.68
2022-07-25T13:26:47.911Z,31.53
2022-07-25T13:27:49.824Z,33.14
2022-07-25T13:29:05.215Z,32.61
2022-07-25T13:30:08.883Z,32.82
2022-07-25T13:31:10.685Z,30.89
2022-07-25T13:32:13.528Z,31.80
2022-07-25T13:33:16.314Z,32.91